sensor_id;sensor_type;location;lat;lon;timestamp;P1;durP1;ratioP1;P2;durP2;ratioP2
53409;SDS011;66590;50.734;4.246;2023-04-03T00:00:54;16.95;;;13.32;;
53409;SDS011;66590;50.734;4.246;2023-04-03T00:03:22;17.38;;;13.32;;
53409;SDS011;66590;50.734;4.246;2023-04-03T00:05:50;17.20;;;12.95;;
53409;SDS011;66590;50.734;4.246;2023-04-03T00:08:18;15.35;;;12.75;;
53409;SDS011;66590;50.734;4.246;2023-04-03T00:10:45;14.70;;;11.80;;
53409;SDS011;66590;50.734;4.246;2023-04-03T00:13:12;16.60;;;12.45;;
53409;SDS011;66590;50.734;4.246;2023-04-03T00:15:40;15.57;;;11.52;;
53409;SDS011;66590;50.734;4.246;2023-04-03T00:18:07;13.57;;;10.77;;
53409;SDS011;66590;50.734;4.246;2023-04-03T00:20:35;17.30;;;11.43;;
53409;SDS011;66590;50.734;4.246;2023-04-03T00:23:02;13.90;;;11.15;;
53409;SDS011;66590;50.734;4.246;2023-04-03T00:25:30;13.88;;;11.65;;
53409;SDS011;66590;50.734;4.246;2023-04-03T00:27:58;14.30;;;11.48;;
53409;SDS011;66590;50.734;4.246;2023-04-03T00:30:25;13.75;;;10.85;;
53409;SDS011;66590;50.734;4.246;2023-04-03T00:32:52;14.73;;;11.32;;
53409;SDS011;66590;50.734;4.246;2023-04-03T00:35:19;14.60;;;11.15;;
53409;SDS011;66590;50.734;4.246;2023-04-03T00:37:47;14.05;;;10.55;;
53409;SDS011;66590;50.734;4.246;2023-04-03T00:40:17;13.48;;;10.50;;
53409;SDS011;66590;50.734;4.246;2023-04-03T00:42:46;15.70;;;10.27;;
53409;SDS011;66590;50.734;4.246;2023-04-03T00:45:27;14.85;;;10.80;;
53409;SDS011;66590;50.734;4.246;2023-04-03T00:47:59;12.97;;;10.87;;
53409;SDS011;66590;50.734;4.246;2023-04-03T00:50:28;13.45;;;10.73;;
53409;SDS011;66590;50.734;4.246;2023-04-03T00:52:56;14.07;;;11.00;;
53409;SDS011;66590;50.734;4.246;2023-04-03T00:55:24;14.45;;;10.40;;
53409;SDS011;66590;50.734;4.246;2023-04-03T00:57:53;13.25;;;10.18;;
53409;SDS011;66590;50.734;4.246;2023-04-03T01:00:22;12.98;;;10.45;;
53409;SDS011;66590;50.734;4.246;2023-04-03T01:02:50;11.75;;;10.35;;
53409;SDS011;66590;50.734;4.246;2023-04-03T01:05:18;11.82;;;9.93;;
53409;SDS011;66590;50.734;4.246;2023-04-03T01:07:46;11.82;;;10.27;;
53409;SDS011;66590;50.734;4.246;2023-04-03T01:10:16;15.25;;;11.00;;
53409;SDS011;66590;50.734;4.246;2023-04-03T01:12:44;11.60;;;9.27;;
53409;SDS011;66590;50.734;4.246;2023-04-03T01:15:16;13.18;;;10.07;;
53409;SDS011;66590;50.734;4.246;2023-04-03T01:17:44;13.20;;;10.10;;
53409;SDS011;66590;50.734;4.246;2023-04-03T01:20:24;12.32;;;10.10;;
53409;SDS011;66590;50.734;4.246;2023-04-03T01:23:31;13.88;;;10.32;;
53409;SDS011;66590;50.734;4.246;2023-04-03T01:26:07;15.50;;;10.10;;
53409;SDS011;66590;50.734;4.246;2023-04-03T01:28:35;11.32;;;10.02;;
53409;SDS011;66590;50.734;4.246;2023-04-03T01:31:06;13.07;;;10.55;;
53409;SDS011;66590;50.734;4.246;2023-04-03T01:33:43;13.65;;;9.73;;
53409;SDS011;66590;50.734;4.246;2023-04-03T01:36:14;11.40;;;9.75;;
53409;SDS011;66590;50.734;4.246;2023-04-03T01:38:42;12.23;;;9.88;;
53409;SDS011;66590;50.734;4.246;2023-04-03T01:41:09;11.43;;;10.20;;
53409;SDS011;66590;50.734;4.246;2023-04-03T01:43:36;15.27;;;9.90;;
53409;SDS011;66590;50.734;4.246;2023-04-03T01:46:04;16.05;;;10.45;;
53409;SDS011;66590;50.734;4.246;2023-04-03T01:48:31;11.57;;;9.65;;
53409;SDS011;66590;50.734;4.246;2023-04-03T01:50:59;12.80;;;10.30;;
53409;SDS011;66590;50.734;4.246;2023-04-03T01:53:26;12.98;;;9.98;;
53409;SDS011;66590;50.734;4.246;2023-04-03T01:55:53;11.52;;;9.52;;
53409;SDS011;66590;50.734;4.246;2023-04-03T01:58:20;12.75;;;10.50;;
53409;SDS011;66590;50.734;4.246;2023-04-03T02:00:47;13.00;;;10.63;;
53409;SDS011;66590;50.734;4.246;2023-04-03T02:03:14;18.10;;;10.82;;
53409;SDS011;66590;50.734;4.246;2023-04-03T02:05:41;16.42;;;11.13;;
53409;SDS011;66590;50.734;4.246;2023-04-03T02:08:09;13.45;;;10.73;;
53409;SDS011;66590;50.734;4.246;2023-04-03T02:10:37;12.63;;;9.52;;
53409;SDS011;66590;50.734;4.246;2023-04-03T02:13:04;13.48;;;10.23;;
53409;SDS011;66590;50.734;4.246;2023-04-03T02:15:31;15.05;;;10.57;;
53409;SDS011;66590;50.734;4.246;2023-04-03T02:17:58;11.85;;;9.85;;
53409;SDS011;66590;50.734;4.246;2023-04-03T02:20:25;12.75;;;10.10;;
53409;SDS011;66590;50.734;4.246;2023-04-03T02:22:52;10.98;;;9.88;;
53409;SDS011;66590;50.734;4.246;2023-04-03T02:25:20;11.55;;;9.05;;
53409;SDS011;66590;50.734;4.246;2023-04-03T02:27:47;10.40;;;9.30;;
53409;SDS011;66590;50.734;4.246;2023-04-03T02:30:14;11.98;;;10.02;;
53409;SDS011;66590;50.734;4.246;2023-04-03T02:32:42;13.90;;;10.10;;
53409;SDS011;66590;50.734;4.246;2023-04-03T02:35:09;11.80;;;9.50;;
53409;SDS011;66590;50.734;4.246;2023-04-03T02:37:37;13.80;;;9.65;;
53409;SDS011;66590;50.734;4.246;2023-04-03T02:40:05;12.65;;;10.25;;
53409;SDS011;66590;50.734;4.246;2023-04-03T02:42:34;11.35;;;9.52;;
53409;SDS011;66590;50.734;4.246;2023-04-03T02:45:01;11.23;;;10.02;;
53409;SDS011;66590;50.734;4.246;2023-04-03T02:47:28;14.68;;;10.57;;
53409;SDS011;66590;50.734;4.246;2023-04-03T02:49:55;10.60;;;9.43;;
53409;SDS011;66590;50.734;4.246;2023-04-03T02:52:22;12.07;;;10.23;;
53409;SDS011;66590;50.734;4.246;2023-04-03T02:54:49;12.00;;;9.90;;
53409;SDS011;66590;50.734;4.246;2023-04-03T02:57:16;11.63;;;9.57;;
53409;SDS011;66590;50.734;4.246;2023-04-03T02:59:45;16.08;;;10.10;;
53409;SDS011;66590;50.734;4.246;2023-04-03T03:02:12;12.10;;;10.35;;
53409;SDS011;66590;50.734;4.246;2023-04-03T03:04:38;11.88;;;9.60;;
53409;SDS011;66590;50.734;4.246;2023-04-03T03:07:06;16.00;;;11.13;;
53409;SDS011;66590;50.734;4.246;2023-04-03T03:09:33;15.27;;;10.38;;
53409;SDS011;66590;50.734;4.246;2023-04-03T03:12:00;12.15;;;9.95;;
53409;SDS011;66590;50.734;4.246;2023-04-03T03:14:27;13.70;;;9.82;;
53409;SDS011;66590;50.734;4.246;2023-04-03T03:16:56;12.85;;;10.18;;
53409;SDS011;66590;50.734;4.246;2023-04-03T03:19:23;14.77;;;10.73;;
53409;SDS011;66590;50.734;4.246;2023-04-03T03:21:50;11.95;;;9.98;;
53409;SDS011;66590;50.734;4.246;2023-04-03T03:24:17;12.10;;;9.07;;
53409;SDS011;66590;50.734;4.246;2023-04-03T03:26:43;12.10;;;9.57;;
53409;SDS011;66590;50.734;4.246;2023-04-03T03:29:10;10.23;;;8.98;;
53409;SDS011;66590;50.734;4.246;2023-04-03T03:31:37;14.15;;;10.00;;
53409;SDS011;66590;50.734;4.246;2023-04-03T03:34:06;10.98;;;9.77;;
53409;SDS011;66590;50.734;4.246;2023-04-03T03:36:33;13.02;;;10.02;;
53409;SDS011;66590;50.734;4.246;2023-04-03T03:39:00;11.40;;;9.55;;
53409;SDS011;66590;50.734;4.246;2023-04-03T03:41:27;13.13;;;10.02;;
53409;SDS011;66590;50.734;4.246;2023-04-03T03:43:54;11.75;;;9.32;;
53409;SDS011;66590;50.734;4.246;2023-04-03T03:46:21;10.07;;;8.65;;
53409;SDS011;66590;50.734;4.246;2023-04-03T03:48:48;11.35;;;9.55;;
53409;SDS011;66590;50.734;4.246;2023-04-03T03:51:16;10.82;;;9.40;;
53409;SDS011;66590;50.734;4.246;2023-04-03T03:53:43;10.93;;;9.25;;
53409;SDS011;66590;50.734;4.246;2023-04-03T03:56:10;11.10;;;9.50;;
53409;SDS011;66590;50.734;4.246;2023-04-03T03:58:37;11.15;;;9.38;;
53409;SDS011;66590;50.734;4.246;2023-04-03T04:01:04;14.30;;;9.90;;
53409;SDS011;66590;50.734;4.246;2023-04-03T04:03:32;13.55;;;10.25;;
53409;SDS011;66590;50.734;4.246;2023-04-03T04:06:00;11.80;;;9.70;;
53409;SDS011;66590;50.734;4.246;2023-04-03T04:08:28;13.88;;;10.60;;
53409;SDS011;66590;50.734;4.246;2023-04-03T04:10:55;14.00;;;10.52;;
53409;SDS011;66590;50.734;4.246;2023-04-03T04:13:23;12.60;;;9.60;;
53409;SDS011;66590;50.734;4.246;2023-04-03T04:15:50;14.73;;;10.40;;
53409;SDS011;66590;50.734;4.246;2023-04-03T04:18:17;11.00;;;9.88;;
53409;SDS011;66590;50.734;4.246;2023-04-03T04:20:44;12.95;;;10.57;;
53409;SDS011;66590;50.734;4.246;2023-04-03T04:23:11;14.02;;;10.65;;
53409;SDS011;66590;50.734;4.246;2023-04-03T04:25:40;13.23;;;10.32;;
53409;SDS011;66590;50.734;4.246;2023-04-03T04:28:07;14.20;;;10.23;;
53409;SDS011;66590;50.734;4.246;2023-04-03T04:30:34;13.02;;;9.95;;
53409;SDS011;66590;50.734;4.246;2023-04-03T04:33:01;12.80;;;10.00;;
53409;SDS011;66590;50.734;4.246;2023-04-03T04:35:29;15.07;;;10.35;;
53409;SDS011;66590;50.734;4.246;2023-04-03T04:37:56;12.88;;;10.90;;
53409;SDS011;66590;50.734;4.246;2023-04-03T04:40:23;14.95;;;10.57;;
53409;SDS011;66590;50.734;4.246;2023-04-03T04:42:51;11.40;;;10.20;;
53409;SDS011;66590;50.734;4.246;2023-04-03T04:45:18;11.32;;;10.13;;
53409;SDS011;66590;50.734;4.246;2023-04-03T04:47:45;12.27;;;10.27;;
53409;SDS011;66590;50.734;4.246;2023-04-03T04:50:12;12.70;;;10.25;;
53409;SDS011;66590;50.734;4.246;2023-04-03T04:52:39;13.55;;;10.27;;
53409;SDS011;66590;50.734;4.246;2023-04-03T04:55:06;14.32;;;11.07;;
53409;SDS011;66590;50.734;4.246;2023-04-03T04:57:34;12.35;;;10.35;;
53409;SDS011;66590;50.734;4.246;2023-04-03T05:00:02;14.18;;;11.27;;
53409;SDS011;66590;50.734;4.246;2023-04-03T05:02:30;14.73;;;10.57;;
53409;SDS011;66590;50.734;4.246;2023-04-03T05:04:57;15.40;;;10.13;;
53409;SDS011;66590;50.734;4.246;2023-04-03T05:07:24;16.27;;;12.15;;
53409;SDS011;66590;50.734;4.246;2023-04-03T05:09:51;13.90;;;10.68;;
53409;SDS011;66590;50.734;4.246;2023-04-03T05:12:18;14.98;;;11.32;;
53409;SDS011;66590;50.734;4.246;2023-04-03T05:14:45;14.02;;;11.30;;
53409;SDS011;66590;50.734;4.246;2023-04-03T05:17:13;16.80;;;11.07;;
53409;SDS011;66590;50.734;4.246;2023-04-03T05:19:40;14.65;;;11.02;;
53409;SDS011;66590;50.734;4.246;2023-04-03T05:22:07;14.05;;;10.57;;
53409;SDS011;66590;50.734;4.246;2023-04-03T05:24:34;12.40;;;10.05;;
53409;SDS011;66590;50.734;4.246;2023-04-03T05:27:01;11.75;;;10.48;;
53409;SDS011;66590;50.734;4.246;2023-04-03T05:29:28;14.68;;;11.15;;
53409;SDS011;66590;50.734;4.246;2023-04-03T05:31:55;14.43;;;10.25;;
53409;SDS011;66590;50.734;4.246;2023-04-03T05:34:24;14.60;;;11.25;;
53409;SDS011;66590;50.734;4.246;2023-04-03T05:36:51;14.48;;;11.00;;
53409;SDS011;66590;50.734;4.246;2023-04-03T05:39:18;13.15;;;10.18;;
53409;SDS011;66590;50.734;4.246;2023-04-03T05:41:45;13.40;;;11.23;;
53409;SDS011;66590;50.734;4.246;2023-04-03T05:44:12;12.63;;;11.32;;
53409;SDS011;66590;50.734;4.246;2023-04-03T05:46:39;16.65;;;11.35;;
53409;SDS011;66590;50.734;4.246;2023-04-03T05:49:06;13.68;;;11.07;;
53409;SDS011;66590;50.734;4.246;2023-04-03T05:51:35;15.88;;;12.00;;
53409;SDS011;66590;50.734;4.246;2023-04-03T05:54:05;14.85;;;11.63;;
53409;SDS011;66590;50.734;4.246;2023-04-03T05:56:35;14.65;;;11.75;;
53409;SDS011;66590;50.734;4.246;2023-04-03T05:59:02;14.20;;;11.32;;
53409;SDS011;66590;50.734;4.246;2023-04-03T06:01:29;14.48;;;10.80;;
53409;SDS011;66590;50.734;4.246;2023-04-03T06:03:56;15.00;;;10.90;;
53409;SDS011;66590;50.734;4.246;2023-04-03T06:06:23;15.70;;;12.00;;
53409;SDS011;66590;50.734;4.246;2023-04-03T06:08:51;13.70;;;11.18;;
53409;SDS011;66590;50.734;4.246;2023-04-03T06:11:18;14.38;;;11.02;;
53409;SDS011;66590;50.734;4.246;2023-04-03T06:13:45;12.68;;;11.25;;
53409;SDS011;66590;50.734;4.246;2023-04-03T06:16:12;14.55;;;11.50;;
53409;SDS011;66590;50.734;4.246;2023-04-03T06:18:41;20.10;;;12.73;;
53409;SDS011;66590;50.734;4.246;2023-04-03T06:21:08;13.70;;;12.02;;
53409;SDS011;66590;50.734;4.246;2023-04-03T06:23:35;18.08;;;12.68;;
53409;SDS011;66590;50.734;4.246;2023-04-03T06:26:03;18.00;;;12.20;;
53409;SDS011;66590;50.734;4.246;2023-04-03T06:28:30;15.88;;;12.48;;
53409;SDS011;66590;50.734;4.246;2023-04-03T06:30:58;15.95;;;12.45;;
53409;SDS011;66590;50.734;4.246;2023-04-03T06:33:25;17.92;;;12.77;;
53409;SDS011;66590;50.734;4.246;2023-04-03T06:35:55;19.98;;;13.20;;
53409;SDS011;66590;50.734;4.246;2023-04-03T06:38:23;18.42;;;13.05;;
53409;SDS011;66590;50.734;4.246;2023-04-03T06:40:50;18.42;;;13.18;;
53409;SDS011;66590;50.734;4.246;2023-04-03T06:43:19;18.85;;;13.25;;
53409;SDS011;66590;50.734;4.246;2023-04-03T06:45:48;16.90;;;13.20;;
53409;SDS011;66590;50.734;4.246;2023-04-03T06:48:15;18.10;;;13.43;;
53409;SDS011;66590;50.734;4.246;2023-04-03T06:50:42;17.27;;;12.50;;
53409;SDS011;66590;50.734;4.246;2023-04-03T06:53:09;16.90;;;12.18;;
53409;SDS011;66590;50.734;4.246;2023-04-03T06:55:36;12.15;;;10.38;;
53409;SDS011;66590;50.734;4.246;2023-04-03T06:58:04;19.00;;;11.52;;
53409;SDS011;66590;50.734;4.246;2023-04-03T07:00:32;13.85;;;10.00;;
53409;SDS011;66590;50.734;4.246;2023-04-03T07:03:00;10.95;;;8.40;;
53409;SDS011;66590;50.734;4.246;2023-04-03T07:05:27;15.93;;;9.15;;
53409;SDS011;66590;50.734;4.246;2023-04-03T07:07:54;10.68;;;7.80;;
53409;SDS011;66590;50.734;4.246;2023-04-03T07:10:21;10.88;;;7.78;;
53409;SDS011;66590;50.734;4.246;2023-04-03T07:12:48;9.00;;;8.13;;
53409;SDS011;66590;50.734;4.246;2023-04-03T07:15:15;8.90;;;7.97;;
53409;SDS011;66590;50.734;4.246;2023-04-03T07:17:43;12.20;;;8.93;;
53409;SDS011;66590;50.734;4.246;2023-04-03T07:20:10;12.93;;;9.55;;
53409;SDS011;66590;50.734;4.246;2023-04-03T07:22:37;13.65;;;9.13;;
53409;SDS011;66590;50.734;4.246;2023-04-03T07:25:05;12.77;;;10.45;;
53409;SDS011;66590;50.734;4.246;2023-04-03T07:27:33;13.50;;;10.98;;
53409;SDS011;66590;50.734;4.246;2023-04-03T07:30:00;13.70;;;11.02;;
53409;SDS011;66590;50.734;4.246;2023-04-03T07:32:27;13.18;;;11.80;;
53409;SDS011;66590;50.734;4.246;2023-04-03T07:34:56;15.82;;;12.25;;
53409;SDS011;66590;50.734;4.246;2023-04-03T07:37:23;15.40;;;12.30;;
53409;SDS011;66590;50.734;4.246;2023-04-03T07:39:50;15.32;;;12.68;;
53409;SDS011;66590;50.734;4.246;2023-04-03T07:42:17;17.20;;;12.82;;
53409;SDS011;66590;50.734;4.246;2023-04-03T07:44:45;14.55;;;12.48;;
53409;SDS011;66590;50.734;4.246;2023-04-03T07:47:12;12.32;;;10.35;;
53409;SDS011;66590;50.734;4.246;2023-04-03T07:49:39;14.00;;;11.73;;
53409;SDS011;66590;50.734;4.246;2023-04-03T07:52:07;14.40;;;12.15;;
53409;SDS011;66590;50.734;4.246;2023-04-03T07:54:34;14.25;;;11.70;;
53409;SDS011;66590;50.734;4.246;2023-04-03T07:57:01;12.48;;;10.52;;
53409;SDS011;66590;50.734;4.246;2023-04-03T07:59:28;11.35;;;10.18;;
53409;SDS011;66590;50.734;4.246;2023-04-03T08:01:56;12.23;;;10.43;;
53409;SDS011;66590;50.734;4.246;2023-04-03T08:04:22;14.18;;;9.25;;
53409;SDS011;66590;50.734;4.246;2023-04-03T08:06:50;11.93;;;9.10;;
53409;SDS011;66590;50.734;4.246;2023-04-03T08:09:18;10.95;;;9.80;;
53409;SDS011;66590;50.734;4.246;2023-04-03T08:11:45;10.27;;;9.18;;
53409;SDS011;66590;50.734;4.246;2023-04-03T08:14:13;10.90;;;8.15;;
53409;SDS011;66590;50.734;4.246;2023-04-03T08:16:40;9.95;;;7.72;;
53409;SDS011;66590;50.734;4.246;2023-04-03T08:19:07;9.10;;;7.45;;
53409;SDS011;66590;50.734;4.246;2023-04-03T08:21:44;9.88;;;7.50;;
53409;SDS011;66590;50.734;4.246;2023-04-03T08:24:11;8.40;;;7.57;;
53409;SDS011;66590;50.734;4.246;2023-04-03T08:26:39;11.20;;;7.82;;
53409;SDS011;66590;50.734;4.246;2023-04-03T08:29:06;10.95;;;7.45;;
53409;SDS011;66590;50.734;4.246;2023-04-03T08:31:33;9.63;;;7.10;;
53409;SDS011;66590;50.734;4.246;2023-04-03T08:34:00;8.93;;;7.82;;
53409;SDS011;66590;50.734;4.246;2023-04-03T08:36:28;9.57;;;7.65;;
53409;SDS011;66590;50.734;4.246;2023-04-03T08:38:55;10.75;;;7.57;;
53409;SDS011;66590;50.734;4.246;2023-04-03T08:41:25;9.48;;;7.00;;
53409;SDS011;66590;50.734;4.246;2023-04-03T08:44:03;7.07;;;6.25;;
53409;SDS011;66590;50.734;4.246;2023-04-03T08:46:42;8.85;;;6.40;;
53409;SDS011;66590;50.734;4.246;2023-04-03T08:49:29;6.28;;;5.40;;
53409;SDS011;66590;50.734;4.246;2023-04-03T08:51:59;7.13;;;5.95;;
53409;SDS011;66590;50.734;4.246;2023-04-03T08:54:30;8.02;;;5.88;;
53409;SDS011;66590;50.734;4.246;2023-04-03T08:57:02;7.93;;;5.43;;
53409;SDS011;66590;50.734;4.246;2023-04-03T08:59:34;7.50;;;5.93;;
53409;SDS011;66590;50.734;4.246;2023-04-03T09:02:04;7.57;;;6.10;;
53409;SDS011;66590;50.734;4.246;2023-04-03T09:04:46;7.18;;;6.47;;
53409;SDS011;66590;50.734;4.246;2023-04-03T09:07:13;8.55;;;5.80;;
53409;SDS011;66590;50.734;4.246;2023-04-03T09:09:46;6.53;;;4.85;;
53409;SDS011;66590;50.734;4.246;2023-04-03T09:12:16;6.13;;;5.20;;
53409;SDS011;66590;50.734;4.246;2023-04-03T09:14:52;5.78;;;4.57;;
53409;SDS011;66590;50.734;4.246;2023-04-03T09:17:29;7.90;;;5.70;;
53409;SDS011;66590;50.734;4.246;2023-04-03T09:20:07;7.03;;;5.07;;
53409;SDS011;66590;50.734;4.246;2023-04-03T09:22:46;6.88;;;5.45;;
53409;SDS011;66590;50.734;4.246;2023-04-03T09:25:18;6.25;;;5.00;;
53409;SDS011;66590;50.734;4.246;2023-04-03T09:27:48;5.38;;;4.90;;
53409;SDS011;66590;50.734;4.246;2023-04-03T09:30:17;6.45;;;5.28;;
53409;SDS011;66590;50.734;4.246;2023-04-03T09:32:46;9.25;;;5.38;;
53409;SDS011;66590;50.734;4.246;2023-04-03T09:35:23;5.85;;;4.95;;
53409;SDS011;66590;50.734;4.246;2023-04-03T09:38:14;5.25;;;4.15;;
53409;SDS011;66590;50.734;4.246;2023-04-03T09:40:44;7.60;;;4.93;;
53409;SDS011;66590;50.734;4.246;2023-04-03T09:43:22;5.13;;;4.25;;
53409;SDS011;66590;50.734;4.246;2023-04-03T09:45:52;7.78;;;4.40;;
53409;SDS011;66590;50.734;4.246;2023-04-03T09:48:20;5.93;;;4.50;;
53409;SDS011;66590;50.734;4.246;2023-04-03T09:50:56;6.88;;;4.72;;
53409;SDS011;66590;50.734;4.246;2023-04-03T09:53:29;5.70;;;4.10;;
53409;SDS011;66590;50.734;4.246;2023-04-03T09:55:58;6.15;;;4.18;;
53409;SDS011;66590;50.734;4.246;2023-04-03T09:58:27;7.10;;;4.70;;
53409;SDS011;66590;50.734;4.246;2023-04-03T10:01:22;7.53;;;4.35;;
53409;SDS011;66590;50.734;4.246;2023-04-03T10:04:06;5.40;;;4.20;;
53409;SDS011;66590;50.734;4.246;2023-04-03T10:06:36;4.25;;;3.85;;
53409;SDS011;66590;50.734;4.246;2023-04-03T10:09:05;5.43;;;4.13;;
53409;SDS011;66590;50.734;4.246;2023-04-03T10:11:48;6.55;;;4.28;;
53409;SDS011;66590;50.734;4.246;2023-04-03T10:14:25;7.95;;;4.32;;
53409;SDS011;66590;50.734;4.246;2023-04-03T10:16:55;6.47;;;4.28;;
53409;SDS011;66590;50.734;4.246;2023-04-03T10:19:33;6.93;;;3.75;;
53409;SDS011;66590;50.734;4.246;2023-04-03T10:22:03;6.70;;;4.13;;
53409;SDS011;66590;50.734;4.246;2023-04-03T10:24:41;7.47;;;3.83;;
53409;SDS011;66590;50.734;4.246;2023-04-03T10:27:16;7.78;;;3.97;;
53409;SDS011;66590;50.734;4.246;2023-04-03T10:29:49;7.40;;;4.32;;
53409;SDS011;66590;50.734;4.246;2023-04-03T10:32:26;6.20;;;3.13;;
53409;SDS011;66590;50.734;4.246;2023-04-03T10:35:08;4.68;;;3.30;;
53409;SDS011;66590;50.734;4.246;2023-04-03T10:37:47;4.97;;;3.05;;
53409;SDS011;66590;50.734;4.246;2023-04-03T10:40:24;4.70;;;2.55;;
53409;SDS011;66590;50.734;4.246;2023-04-03T10:42:58;3.72;;;3.08;;
53409;SDS011;66590;50.734;4.246;2023-04-03T10:45:37;6.65;;;3.00;;
53409;SDS011;66590;50.734;4.246;2023-04-03T10:50:52;6.18;;;3.00;;
53409;SDS011;66590;50.734;4.246;2023-04-03T10:53:27;4.60;;;2.83;;
53409;SDS011;66590;50.734;4.246;2023-04-03T10:56:02;5.80;;;2.97;;
53409;SDS011;66590;50.734;4.246;2023-04-03T10:58:36;5.05;;;2.58;;
53409;SDS011;66590;50.734;4.246;2023-04-03T11:01:07;5.28;;;2.70;;
53409;SDS011;66590;50.734;4.246;2023-04-03T11:03:40;7.57;;;2.75;;
53409;SDS011;66590;50.734;4.246;2023-04-03T11:06:11;3.85;;;2.80;;
53409;SDS011;66590;50.734;4.246;2023-04-03T11:08:42;5.57;;;2.78;;
53409;SDS011;66590;50.734;4.246;2023-04-03T11:11:13;3.75;;;2.20;;
53409;SDS011;66590;50.734;4.246;2023-04-03T11:13:43;3.30;;;2.58;;
53409;SDS011;66590;50.734;4.246;2023-04-03T11:16:18;3.72;;;2.17;;
53409;SDS011;66590;50.734;4.246;2023-04-03T11:18:52;3.72;;;2.60;;
53409;SDS011;66590;50.734;4.246;2023-04-03T11:21:25;4.03;;;2.20;;
53409;SDS011;66590;50.734;4.246;2023-04-03T11:23:55;3.40;;;2.28;;
53409;SDS011;66590;50.734;4.246;2023-04-03T11:26:24;4.25;;;2.28;;
53409;SDS011;66590;50.734;4.246;2023-04-03T11:28:58;4.43;;;2.17;;
53409;SDS011;66590;50.734;4.246;2023-04-03T11:31:39;5.20;;;2.10;;
53409;SDS011;66590;50.734;4.246;2023-04-03T11:34:24;3.60;;;2.20;;
53409;SDS011;66590;50.734;4.246;2023-04-03T11:36:59;2.88;;;2.30;;
53409;SDS011;66590;50.734;4.246;2023-04-03T11:39:31;4.32;;;2.35;;
53409;SDS011;66590;50.734;4.246;2023-04-03T11:42:13;3.30;;;2.38;;
53409;SDS011;66590;50.734;4.246;2023-04-03T11:44:41;3.38;;;2.47;;
53409;SDS011;66590;50.734;4.246;2023-04-03T11:47:09;2.78;;;2.00;;
53409;SDS011;66590;50.734;4.246;2023-04-03T11:50:00;5.13;;;2.78;;
53409;SDS011;66590;50.734;4.246;2023-04-03T11:55:44;6.32;;;2.67;;
53409;SDS011;66590;50.734;4.246;2023-04-03T11:58:21;5.68;;;2.85;;
53409;SDS011;66590;50.734;4.246;2023-04-03T12:01:03;2.95;;;2.42;;
53409;SDS011;66590;50.734;4.246;2023-04-03T12:03:33;4.65;;;2.38;;
53409;SDS011;66590;50.734;4.246;2023-04-03T12:09:27;4.50;;;2.05;;
53409;SDS011;66590;50.734;4.246;2023-04-03T12:11:59;4.88;;;2.35;;
53409;SDS011;66590;50.734;4.246;2023-04-03T12:14:27;5.38;;;2.70;;
53409;SDS011;66590;50.734;4.246;2023-04-03T12:16:55;3.30;;;2.22;;
53409;SDS011;66590;50.734;4.246;2023-04-03T12:19:29;5.68;;;2.47;;
53409;SDS011;66590;50.734;4.246;2023-04-03T12:22:09;3.20;;;2.05;;
53409;SDS011;66590;50.734;4.246;2023-04-03T12:24:42;4.35;;;2.17;;
53409;SDS011;66590;50.734;4.246;2023-04-03T12:30:15;3.58;;;1.92;;
53409;SDS011;66590;50.734;4.246;2023-04-03T12:32:50;5.40;;;2.25;;
53409;SDS011;66590;50.734;4.246;2023-04-03T12:35:39;3.72;;;2.33;;
53409;SDS011;66590;50.734;4.246;2023-04-03T12:40:47;5.13;;;2.45;;
53409;SDS011;66590;50.734;4.246;2023-04-03T12:43:20;3.90;;;2.43;;
53409;SDS011;66590;50.734;4.246;2023-04-03T12:45:58;4.53;;;2.60;;
53409;SDS011;66590;50.734;4.246;2023-04-03T12:48:30;4.10;;;2.50;;
53409;SDS011;66590;50.734;4.246;2023-04-03T12:51:00;4.93;;;2.47;;
53409;SDS011;66590;50.734;4.246;2023-04-03T12:53:29;2.95;;;2.03;;
53409;SDS011;66590;50.734;4.246;2023-04-03T12:58:51;4.05;;;2.55;;
53409;SDS011;66590;50.734;4.246;2023-04-03T13:01:20;5.55;;;2.40;;
53409;SDS011;66590;50.734;4.246;2023-04-03T13:03:49;4.80;;;2.47;;
53409;SDS011;66590;50.734;4.246;2023-04-03T13:06:19;11.15;;;3.35;;
53409;SDS011;66590;50.734;4.246;2023-04-03T13:08:49;11.65;;;3.13;;
53409;SDS011;66590;50.734;4.246;2023-04-03T13:11:17;13.30;;;3.20;;
53409;SDS011;66590;50.734;4.246;2023-04-03T13:13:55;11.10;;;2.40;;
53409;SDS011;66590;50.734;4.246;2023-04-03T13:16:23;5.75;;;2.28;;
53409;SDS011;66590;50.734;4.246;2023-04-03T13:18:51;4.50;;;2.30;;
53409;SDS011;66590;50.734;4.246;2023-04-03T13:21:19;3.53;;;2.15;;
53409;SDS011;66590;50.734;4.246;2023-04-03T13:23:50;3.92;;;2.03;;
53409;SDS011;66590;50.734;4.246;2023-04-03T13:26:32;3.30;;;2.13;;
53409;SDS011;66590;50.734;4.246;2023-04-03T13:29:03;4.43;;;2.13;;
53409;SDS011;66590;50.734;4.246;2023-04-03T13:31:42;7.05;;;2.20;;
53409;SDS011;66590;50.734;4.246;2023-04-03T13:34:11;5.97;;;2.42;;
53409;SDS011;66590;50.734;4.246;2023-04-03T13:36:40;2.95;;;1.92;;
53409;SDS011;66590;50.734;4.246;2023-04-03T13:39:20;3.08;;;1.77;;
53409;SDS011;66590;50.734;4.246;2023-04-03T13:41:50;1.83;;;1.67;;
53409;SDS011;66590;50.734;4.246;2023-04-03T13:44:37;2.97;;;2.10;;
53409;SDS011;66590;50.734;4.246;2023-04-03T13:47:14;3.47;;;1.77;;
53409;SDS011;66590;50.734;4.246;2023-04-03T13:49:44;2.03;;;1.60;;
53409;SDS011;66590;50.734;4.246;2023-04-03T13:52:22;2.50;;;1.85;;
53409;SDS011;66590;50.734;4.246;2023-04-03T13:54:51;3.20;;;1.52;;
53409;SDS011;66590;50.734;4.246;2023-04-03T13:57:20;3.72;;;1.70;;
53409;SDS011;66590;50.734;4.246;2023-04-03T13:59:50;2.92;;;1.90;;
53409;SDS011;66590;50.734;4.246;2023-04-03T14:02:19;4.10;;;1.60;;
53409;SDS011;66590;50.734;4.246;2023-04-03T14:04:52;3.80;;;2.13;;
53409;SDS011;66590;50.734;4.246;2023-04-03T14:07:20;3.60;;;1.50;;
53409;SDS011;66590;50.734;4.246;2023-04-03T14:09:47;2.42;;;1.70;;
53409;SDS011;66590;50.734;4.246;2023-04-03T14:12:15;2.72;;;1.67;;
53409;SDS011;66590;50.734;4.246;2023-04-03T14:14:58;5.50;;;2.03;;
53409;SDS011;66590;50.734;4.246;2023-04-03T14:17:26;3.97;;;1.77;;
53409;SDS011;66590;50.734;4.246;2023-04-03T14:19:54;3.47;;;1.73;;
53409;SDS011;66590;50.734;4.246;2023-04-03T14:22:22;2.47;;;1.80;;
53409;SDS011;66590;50.734;4.246;2023-04-03T14:24:50;4.32;;;1.80;;
53409;SDS011;66590;50.734;4.246;2023-04-03T14:27:19;6.07;;;1.80;;
53409;SDS011;66590;50.734;4.246;2023-04-03T14:29:48;5.97;;;2.28;;
53409;SDS011;66590;50.734;4.246;2023-04-03T14:32:19;3.40;;;2.00;;
53409;SDS011;66590;50.734;4.246;2023-04-03T14:34:47;3.85;;;2.03;;
53409;SDS011;66590;50.734;4.246;2023-04-03T14:37:16;5.22;;;2.10;;
53409;SDS011;66590;50.734;4.246;2023-04-03T14:39:45;3.30;;;2.08;;
53409;SDS011;66590;50.734;4.246;2023-04-03T14:42:13;5.82;;;2.25;;
53409;SDS011;66590;50.734;4.246;2023-04-03T14:44:42;2.45;;;1.63;;
53409;SDS011;66590;50.734;4.246;2023-04-03T14:47:09;5.07;;;2.08;;
53409;SDS011;66590;50.734;4.246;2023-04-03T14:49:57;2.92;;;2.13;;
53409;SDS011;66590;50.734;4.246;2023-04-03T14:52:25;2.90;;;1.85;;
53409;SDS011;66590;50.734;4.246;2023-04-03T14:54:54;3.90;;;2.22;;
53409;SDS011;66590;50.734;4.246;2023-04-03T14:57:21;4.05;;;1.80;;
53409;SDS011;66590;50.734;4.246;2023-04-03T14:59:50;2.78;;;1.92;;
53409;SDS011;66590;50.734;4.246;2023-04-03T15:02:25;4.82;;;1.80;;
53409;SDS011;66590;50.734;4.246;2023-04-03T15:04:54;2.60;;;1.90;;
53409;SDS011;66590;50.734;4.246;2023-04-03T15:07:24;3.22;;;2.00;;
53409;SDS011;66590;50.734;4.246;2023-04-03T15:09:53;3.45;;;1.90;;